createdAt,value
2018-12-10T00:01:09.140Z,5.30
2018-12-10T00:03:37.569Z,5.30
2018-12-10T00:06:05.913Z,5.30
2018-12-10T00:08:34.317Z,5.30
2018-12-10T00:11:02.945Z,5.30
2018-12-10T00:13:31.338Z,5.30
2018-12-10T00:15:59.681Z,5.30
2018-12-10T00:18:28.077Z,5.30
2018-12-10T00:20:56.469Z,5.30
2018-12-10T00:23:24.853Z,5.30
2018-12-10T00:25:53.249Z,5.30
2018-12-10T00:28:21.672Z,5.30
2018-12-10T00:30:50.107Z,5.30
2018-12-10T00:33:18.454Z,5.30
2018-12-10T00:35:46.857Z,5.30
2018-12-10T00:38:15.199Z,5.30
2018-12-10T00:40:43.549Z,5.30
2018-12-10T00:43:11.939Z,5.30
2018-12-10T00:45:40.289Z,5.30
2018-12-10T00:48:09.005Z,5.30
2018-12-10T00:50:37.877Z,5.30
2018-12-10T00:53:06.308Z,5.20
2018-12-10T00:55:34.709Z,5.20
2018-12-10T00:58:03.242Z,5.30
2018-12-10T01:00:31.641Z,5.20
2018-12-10T01:02:59.978Z,5.20
2018-12-10T01:05:28.370Z,5.20
2018-12-10T01:07:56.696Z,5.20
2018-12-10T01:10:25.176Z,5.10
2018-12-10T01:12:54.168Z,5.10
2018-12-10T01:15:22.534Z,5.10
2018-12-10T01:17:50.922Z,5.10
2018-12-10T01:20:19.776Z,5.10
2018-12-10T01:22:48.098Z,5.10
2018-12-10T01:25:16.568Z,5.10
2018-12-10T01:27:45.148Z,5.10
2018-12-10T01:30:13.600Z,5.10
2018-12-10T01:32:41.950Z,5.10
2018-12-10T01:35:10.362Z,5.10
2018-12-10T01:37:38.702Z,5.10
2018-12-10T01:40:07.127Z,5.10
2018-12-10T01:42:35.476Z,5.10
2018-12-10T01:45:04.467Z,5.10
2018-12-10T01:47:32.848Z,5.10
2018-12-10T01:50:01.209Z,5.10
2018-12-10T01:52:30.644Z,5.10
2018-12-10T01:54:58.987Z,5.10
2018-12-10T01:57:27.346Z,5.10
2018-12-10T01:59:55.744Z,5.00
2018-12-10T02:02:24.093Z,5.00
2018-12-10T02:04:52.450Z,5.00
2018-12-10T02:07:20.868Z,5.00
2018-12-10T02:09:49.202Z,5.00
2018-12-10T02:12:17.670Z,5.00
2018-12-10T02:14:46.068Z,5.00
2018-12-10T02:17:14.722Z,5.00
2018-12-10T02:19:43.055Z,4.90
2018-12-10T02:22:11.474Z,4.80
2018-12-10T02:24:39.804Z,4.70
2018-12-10T02:27:08.230Z,4.70
2018-12-10T02:29:36.631Z,4.60
2018-12-10T02:32:05.150Z,4.60
2018-12-10T02:34:33.490Z,4.60
2018-12-10T02:37:01.871Z,4.60
2018-12-10T02:39:30.218Z,4.60
2018-12-10T02:41:58.687Z,4.60
2018-12-10T02:44:27.387Z,4.60
2018-12-10T02:46:56.021Z,4.50
2018-12-10T02:49:24.402Z,4.60
2018-12-10T02:51:52.726Z,4.50
2018-12-10T02:54:21.109Z,4.60
2018-12-10T02:56:50.481Z,4.60
2018-12-10T02:59:18.806Z,4.50
2018-12-10T03:01:47.140Z,4.50
2018-12-10T03:04:16.130Z,4.50
2018-12-10T03:06:44.581Z,4.50
2018-12-10T03:09:12.916Z,4.40
2018-12-10T03:11:41.306Z,4.40
2018-12-10T03:14:09.723Z,4.40
2018-12-10T03:16:38.197Z,4.40
2018-12-10T03:19:06.605Z,4.40
2018-12-10T03:21:34.946Z,4.40
2018-12-10T03:24:03.604Z,4.30
2018-12-10T03:26:31.990Z,4.30
2018-12-10T03:29:00.332Z,4.20
2018-12-10T03:31:28.682Z,4.30
2018-12-10T03:33:57.094Z,4.20
2018-12-10T03:36:25.540Z,4.20
2018-12-10T03:38:53.869Z,4.30
2018-12-10T03:41:22.472Z,4.20
2018-12-10T03:43:50.805Z,4.20
2018-12-10T03:46:19.919Z,4.20
2018-12-10T03:48:48.417Z,4.20
2018-12-10T03:51:16.743Z,4.20
2018-12-10T03:53:45.144Z,4.20
2018-12-10T03:56:13.543Z,4.20
2018-12-10T03:58:41.886Z,4.20
2018-12-10T04:01:10.329Z,4.20
2018-12-10T04:03:38.752Z,4.20
2018-12-10T04:06:07.069Z,4.20
2018-12-10T04:08:35.464Z,4.10
2018-12-10T04:11:04.089Z,4.00
2018-12-10T04:13:32.628Z,4.00
2018-12-10T04:16:00.999Z,4.00
2018-12-10T04:18:29.406Z,3.90
2018-12-10T04:20:58.739Z,3.90
2018-12-10T04:23:27.445Z,3.80
2018-12-10T04:25:55.960Z,3.80
2018-12-10T04:28:24.951Z,3.80
2018-12-10T04:30:53.346Z,3.90
2018-12-10T04:33:21.696Z,3.90
2018-12-10T04:35:50.222Z,3.90
2018-12-10T04:38:18.594Z,3.80
2018-12-10T04:40:46.920Z,3.80
2018-12-10T04:43:15.447Z,3.80
2018-12-10T04:45:43.813Z,3.80
2018-12-10T04:48:12.149Z,3.80
2018-12-10T04:50:40.569Z,3.80
2018-12-10T04:53:08.971Z,3.80
2018-12-10T04:55:37.285Z,3.80
2018-12-10T04:58:05.687Z,3.90
2018-12-10T05:00:34.044Z,3.80
2018-12-10T05:03:02.397Z,3.90
2018-12-10T05:05:30.789Z,3.80
2018-12-10T05:07:59.135Z,3.80
2018-12-10T05:10:27.475Z,3.80
2018-12-10T05:12:55.979Z,3.90
2018-12-10T05:15:24.517Z,3.90
2018-12-10T05:17:52.875Z,3.80
2018-12-10T05:20:21.305Z,3.80
2018-12-10T05:22:49.653Z,3.70
2018-12-10T05:25:18.007Z,3.60
2018-12-10T05:27:46.427Z,3.50
2018-12-10T05:30:14.981Z,3.40
2018-12-10T05:32:43.331Z,3.20
2018-12-10T05:35:11.718Z,3.10
2018-12-10T05:37:40.054Z,3.10
2018-12-10T05:40:08.538Z,3.00
2018-12-10T05:42:37.877Z,3.00
2018-12-10T05:45:08.058Z,3.00
2018-12-10T05:47:37.099Z,3.00
2018-12-10T05:50:06.342Z,2.90
2018-12-10T05:52:34.751Z,2.90
2018-12-10T05:55:03.274Z,2.90
2018-12-10T05:57:31.602Z,2.90
2018-12-10T05:59:59.961Z,2.80
2018-12-10T06:02:28.469Z,2.80
2018-12-10T06:04:56.842Z,2.70
2018-12-10T06:07:25.188Z,2.70
2018-12-10T06:09:53.611Z,2.70
2018-12-10T06:12:21.930Z,2.60
2018-12-10T06:14:50.309Z,2.60
2018-12-10T06:17:18.729Z,2.70
2018-12-10T06:19:47.087Z,2.70
2018-12-10T06:22:15.432Z,2.70
2018-12-10T06:24:43.845Z,2.70
2018-12-10T06:27:12.202Z,2.80
2018-12-10T06:29:40.598Z,2.90
2018-12-10T06:32:09.533Z,3.00
2018-12-10T06:34:37.977Z,3.10
2018-12-10T06:37:06.394Z,3.10
2018-12-10T06:39:34.747Z,3.20
2018-12-10T06:42:03.151Z,3.20
2018-12-10T06:44:31.629Z,3.20
2018-12-10T06:47:00.034Z,3.20
2018-12-10T06:49:28.368Z,3.30
2018-12-10T06:51:56.743Z,3.30
2018-12-10T06:54:25.098Z,3.40
2018-12-10T06:56:53.614Z,3.40
2018-12-10T06:59:22.433Z,3.40
2018-12-10T07:01:50.793Z,3.50
2018-12-10T07:04:19.296Z,3.50
2018-12-10T07:06:48.228Z,3.50
2018-12-10T07:09:16.635Z,3.50
2018-12-10T07:11:45.103Z,3.50
2018-12-10T07:14:13.520Z,3.50
2018-12-10T07:16:42.036Z,3.50
2018-12-10T07:19:10.429Z,3.50
2018-12-10T07:21:38.768Z,3.50
2018-12-10T07:24:07.151Z,3.60
2018-12-10T07:26:35.543Z,3.60
2018-12-10T07:29:03.893Z,3.60
2018-12-10T07:31:34.501Z,3.60
2018-12-10T07:34:02.825Z,3.60
2018-12-10T07:36:31.181Z,3.60
2018-12-10T07:38:59.574Z,3.60
2018-12-10T07:41:27.937Z,3.60
2018-12-10T07:43:56.253Z,3.60
2018-12-10T07:46:24.669Z,3.70
2018-12-10T07:48:53.008Z,3.60
2018-12-10T07:51:21.376Z,3.60
2018-12-10T07:53:49.792Z,3.60
2018-12-10T07:56:18.123Z,3.70
2018-12-10T07:58:46.455Z,3.70
2018-12-10T08:01:14.973Z,3.60
2018-12-10T08:03:43.309Z,3.60
2018-12-10T08:06:12.245Z,3.60
2018-12-10T08:08:40.671Z,3.60
2018-12-10T08:11:08.998Z,3.60
2018-12-10T08:13:37.748Z,3.70
2018-12-10T08:16:06.314Z,3.70
2018-12-10T08:18:35.797Z,3.70
2018-12-10T08:21:04.305Z,3.70
2018-12-10T08:23:32.942Z,3.70
2018-12-10T08:26:01.490Z,3.70
2018-12-10T08:28:29.999Z,3.80
2018-12-10T08:30:58.383Z,3.80
2018-12-10T08:33:26.815Z,3.80
2018-12-10T08:35:55.208Z,3.80
2018-12-10T08:38:23.550Z,3.90
2018-12-10T08:40:51.915Z,3.90
2018-12-10T08:43:20.378Z,3.80
2018-12-10T08:45:49.298Z,3.80
2018-12-10T08:48:17.638Z,3.80
2018-12-10T08:50:46.159Z,3.80
2018-12-10T08:53:14.501Z,3.80
2018-12-10T08:55:42.847Z,3.90
2018-12-10T08:58:11.248Z,3.90
2018-12-10T09:00:40.062Z,3.90
2018-12-10T09:03:08.458Z,4.00
2018-12-10T09:05:36.800Z,4.00
2018-12-10T09:08:05.272Z,4.00
2018-12-10T09:10:34.679Z,4.00
2018-12-10T09:13:03.227Z,4.00
2018-12-10T09:15:31.628Z,4.00
2018-12-10T09:18:00.028Z,3.90
2018-12-10T09:20:28.396Z,4.00
2018-12-10T09:22:56.842Z,4.00
2018-12-10T09:25:26.313Z,4.10
2018-12-10T09:27:54.906Z,4.10
2018-12-10T09:30:23.254Z,4.10
2018-12-10T09:32:51.602Z,4.10
2018-12-10T09:35:20.234Z,4.10
2018-12-10T09:37:48.639Z,4.10
2018-12-10T09:40:17.001Z,4.20
2018-12-10T09:42:45.405Z,4.20
2018-12-10T09:45:13.879Z,4.30
2018-12-10T09:47:42.278Z,4.30
2018-12-10T09:50:10.680Z,4.30
2018-12-10T09:52:39.022Z,4.30
2018-12-10T09:55:07.431Z,4.30
2018-12-10T09:57:35.788Z,4.40
2018-12-10T10:00:04.582Z,4.40
2018-12-10T10:02:32.982Z,4.50
2018-12-10T10:05:01.325Z,4.60
2018-12-10T10:07:29.717Z,4.60
2018-12-10T10:09:58.040Z,4.70
2018-12-10T10:12:26.485Z,4.70
2018-12-10T10:14:54.876Z,4.70
2018-12-10T10:17:23.417Z,4.70
2018-12-10T10:19:51.743Z,4.70
2018-12-10T10:22:20.205Z,4.70
2018-12-10T10:24:48.686Z,4.80
2018-12-10T10:27:17.110Z,4.80
2018-12-10T10:29:45.474Z,4.80
2018-12-10T10:32:13.868Z,4.80
2018-12-10T10:34:42.218Z,4.70
2018-12-10T10:37:10.574Z,4.60
2018-12-10T10:39:39.076Z,4.60
2018-12-10T10:42:07.416Z,4.60
2018-12-10T10:44:35.826Z,4.50
2018-12-10T10:47:05.322Z,4.50
2018-12-10T10:49:33.802Z,4.50
2018-12-10T10:52:02.330Z,4.50
2018-12-10T10:54:30.827Z,4.50
2018-12-10T10:56:59.178Z,4.50
2018-12-10T10:59:27.592Z,4.40
2018-12-10T11:02:00.226Z,4.40
2018-12-10T11:04:28.604Z,4.40
2018-12-10T11:06:56.943Z,4.40
2018-12-10T11:09:25.412Z,4.40
2018-12-10T11:11:53.818Z,4.40
2018-12-10T11:14:22.236Z,4.40
2018-12-10T11:19:25.404Z,4.40
2018-12-10T11:21:53.756Z,4.40
2018-12-10T11:24:22.167Z,4.50
2018-12-10T11:26:50.534Z,4.50
2018-12-10T11:29:19.066Z,4.60
2018-12-10T11:31:47.462Z,4.70
2018-12-10T11:34:15.923Z,4.70
2018-12-10T11:36:44.980Z,4.70
2018-12-10T11:39:13.371Z,4.70
2018-12-10T11:41:41.784Z,4.70
2018-12-10T11:44:10.230Z,4.80
2018-12-10T11:46:39.128Z,4.90
2018-12-10T11:49:07.598Z,4.90
2018-12-10T11:51:35.999Z,5.00
2018-12-10T11:54:04.571Z,5.00
2018-12-10T11:56:32.945Z,5.00
2018-12-10T11:59:01.351Z,4.90
2018-12-10T12:01:29.808Z,4.90
2018-12-10T12:03:58.339Z,4.80
2018-12-10T12:06:26.870Z,4.80
2018-12-10T12:08:55.317Z,4.80
2018-12-10T12:11:23.683Z,4.80
2018-12-10T12:13:52.254Z,4.80
2018-12-10T12:16:20.591Z,4.80
2018-12-10T12:18:49.052Z,4.90
2018-12-10T12:21:18.436Z,4.90
2018-12-10T12:23:46.787Z,5.00
2018-12-10T12:26:15.132Z,5.00
2018-12-10T12:28:43.560Z,5.00
2018-12-10T12:31:11.920Z,5.00
2018-12-10T12:33:40.331Z,4.90
2018-12-10T12:36:08.698Z,4.90
2018-12-10T12:38:37.094Z,4.80
2018-12-10T12:41:05.540Z,4.80
2018-12-10T12:43:33.850Z,4.80
2018-12-10T12:46:02.235Z,4.70
2018-12-10T12:48:30.616Z,4.80
2018-12-10T12:50:58.976Z,4.80
2018-12-10T12:53:27.592Z,4.80
2018-12-10T12:55:56.154Z,4.80
2018-12-10T12:58:24.511Z,4.70
2018-12-10T13:00:52.899Z,4.70
2018-12-10T13:03:21.375Z,4.70
2018-12-10T13:05:49.880Z,4.70
2018-12-10T13:08:18.267Z,4.80
2018-12-10T13:10:46.629Z,4.80
2018-12-10T13:13:15.034Z,4.80
2018-12-10T13:15:43.431Z,4.80
2018-12-10T13:18:11.802Z,4.80
2018-12-10T13:20:40.163Z,4.80
2018-12-10T13:23:08.567Z,4.80
2018-12-10T13:25:36.917Z,4.90
2018-12-10T13:28:05.282Z,4.90
2018-12-10T13:30:34.348Z,4.90
2018-12-10T13:33:02.795Z,4.90
2018-12-10T13:35:31.138Z,4.70
2018-12-10T13:37:59.623Z,4.60
2018-12-10T13:40:27.962Z,4.50
2018-12-10T13:42:56.319Z,4.40
2018-12-10T13:45:24.786Z,4.30
2018-12-10T13:47:53.227Z,4.30
2018-12-10T13:50:21.566Z,4.30
2018-12-10T13:52:49.975Z,4.30
2018-12-10T13:55:18.314Z,4.30
2018-12-10T13:57:46.656Z,4.30
2018-12-10T14:00:15.252Z,4.30
2018-12-10T14:02:43.604Z,4.20
2018-12-10T14:05:16.306Z,4.20
2018-12-10T14:07:48.089Z,4.20
2018-12-10T14:10:15.245Z,4.20
2018-12-10T14:12:43.745Z,4.20
2018-12-10T14:15:12.283Z,4.10
2018-12-10T14:17:40.735Z,4.10
2018-12-10T14:20:09.218Z,4.10
2018-12-10T14:22:37.631Z,4.10
2018-12-10T14:25:06.774Z,4.00
2018-12-10T14:27:35.245Z,4.00
2018-12-10T14:30:05.195Z,3.90
2018-12-10T14:32:33.586Z,3.90
2018-12-10T14:35:02.022Z,3.90
2018-12-10T14:37:30.448Z,3.80
2018-12-10T14:39:58.776Z,3.80
2018-12-10T14:42:27.159Z,3.90
2018-12-10T14:44:55.795Z,3.80
2018-12-10T14:47:24.722Z,3.80
2018-12-10T14:49:53.060Z,3.80
2018-12-10T14:52:21.427Z,3.80
2018-12-10T14:54:49.780Z,3.70
2018-12-10T14:57:18.640Z,3.70
2018-12-10T14:59:47.087Z,3.70
2018-12-10T15:02:15.424Z,3.70
2018-12-10T15:04:43.851Z,3.70
2018-12-10T15:07:12.277Z,3.60
2018-12-10T15:09:40.665Z,3.60
2018-12-10T15:12:09.224Z,3.60
2018-12-10T15:14:37.581Z,3.60
2018-12-10T15:17:06.428Z,3.60
2018-12-10T15:19:34.838Z,3.60
2018-12-10T15:22:03.430Z,3.60
2018-12-10T15:24:31.833Z,3.60
2018-12-10T15:27:00.709Z,3.60
2018-12-10T15:29:29.061Z,3.50
2018-12-10T15:31:57.442Z,3.50
2018-12-10T15:34:26.013Z,3.60
2018-12-10T15:36:54.361Z,3.50
2018-12-10T15:39:22.759Z,3.60
2018-12-10T15:41:51.115Z,3.60
2018-12-10T15:44:19.475Z,3.60
2018-12-10T15:46:47.903Z,3.60
2018-12-10T15:49:16.329Z,3.60
2018-12-10T15:51:44.732Z,3.60
2018-12-10T15:54:13.181Z,3.60
2018-12-10T15:56:42.781Z,3.60
2018-12-10T15:59:11.131Z,3.60
2018-12-10T16:01:39.552Z,3.60
2018-12-10T16:04:08.006Z,3.60
2018-12-10T16:06:36.358Z,3.60
2018-12-10T16:09:06.735Z,3.60
2018-12-10T16:11:35.160Z,3.60
2018-12-10T16:14:04.231Z,3.60
2018-12-10T16:16:32.955Z,3.60
2018-12-10T16:19:01.350Z,3.60
2018-12-10T16:21:29.771Z,3.60
2018-12-10T16:23:58.118Z,3.60
2018-12-10T16:26:26.536Z,3.60
2018-12-10T16:28:54.963Z,3.70
2018-12-10T16:31:23.374Z,3.70
2018-12-10T16:33:51.764Z,3.70
2018-12-10T16:36:20.280Z,3.70
2018-12-10T16:38:48.748Z,3.70
2018-12-10T16:41:17.120Z,3.70
2018-12-10T16:43:45.604Z,3.70
2018-12-10T16:46:14.058Z,3.70
2018-12-10T16:48:42.424Z,3.70
2018-12-10T16:51:10.928Z,3.70
2018-12-10T16:53:39.512Z,3.80
2018-12-10T16:56:07.984Z,3.80
2018-12-10T16:58:36.382Z,3.80
2018-12-10T17:01:04.742Z,3.80
2018-12-10T17:03:33.219Z,3.80
2018-12-10T17:06:01.690Z,3.80
2018-12-10T17:08:30.045Z,3.80
2018-12-10T17:10:58.440Z,3.70
2018-12-10T17:13:26.979Z,3.70
2018-12-10T17:15:55.349Z,3.70
2018-12-10T17:18:23.878Z,3.70
2018-12-10T17:20:52.390Z,3.70
2018-12-10T17:23:20.768Z,3.70
2018-12-10T17:25:49.236Z,3.70
2018-12-10T17:28:17.646Z,3.70
2018-12-10T17:30:46.002Z,3.70
2018-12-10T17:33:15.062Z,3.60
2018-12-10T17:35:43.539Z,3.60
2018-12-10T17:38:11.910Z,3.60
2018-12-10T17:40:40.465Z,3.60
2018-12-10T17:43:08.818Z,3.60
2018-12-10T17:45:38.073Z,3.60
2018-12-10T17:48:06.465Z,3.60
2018-12-10T17:50:34.992Z,3.60
2018-12-10T17:53:03.388Z,3.60
2018-12-10T17:55:31.838Z,3.60
2018-12-10T17:58:00.239Z,3.60
2018-12-10T18:00:28.662Z,3.60
2018-12-10T18:02:57.020Z,3.70
2018-12-10T18:05:25.430Z,3.70
2018-12-10T18:07:53.788Z,3.70
2018-12-10T18:10:22.256Z,3.80
2018-12-10T18:13:09.345Z,3.80
2018-12-10T18:15:37.690Z,3.80
2018-12-10T18:18:06.190Z,3.80
2018-12-10T18:20:34.648Z,3.90
2018-12-10T18:23:03.830Z,3.80
2018-12-10T18:25:32.627Z,3.90
2018-12-10T18:28:01.378Z,3.90
2018-12-10T18:30:29.860Z,3.90
2018-12-10T18:32:58.474Z,3.80
2018-12-10T18:35:26.866Z,3.80
2018-12-10T18:37:55.276Z,3.80
2018-12-10T18:40:23.866Z,3.70
2018-12-10T18:42:52.448Z,3.70
2018-12-10T18:45:20.932Z,3.70
2018-12-10T18:47:49.365Z,3.60
2018-12-10T18:50:17.750Z,3.60
2018-12-10T18:52:46.104Z,3.60
2018-12-10T18:55:14.520Z,3.50
2018-12-10T18:57:42.883Z,3.30
2018-12-10T19:00:13.582Z,3.10
2018-12-10T19:02:42.410Z,3.00
2018-12-10T19:05:11.094Z,2.80
2018-12-10T19:07:39.472Z,2.70
2018-12-10T19:10:09.629Z,2.70
2018-12-10T19:12:38.776Z,2.70
2018-12-10T19:15:09.606Z,2.70
2018-12-10T19:17:37.974Z,2.70
2018-12-10T19:20:07.370Z,2.60
2018-12-10T19:22:35.748Z,2.60
2018-12-10T19:25:04.437Z,2.60
2018-12-10T19:27:32.932Z,2.50
2018-12-10T19:30:01.323Z,2.60
2018-12-10T19:32:29.715Z,2.50
2018-12-10T19:34:58.132Z,2.50
2018-12-10T19:37:26.494Z,2.50
2018-12-10T19:39:54.932Z,2.50
2018-12-10T19:42:23.336Z,2.50
2018-12-10T19:44:51.735Z,2.40
2018-12-10T19:47:20.250Z,2.40
2018-12-10T19:49:48.671Z,2.40
2018-12-10T19:52:17.466Z,2.40
2018-12-10T19:54:45.946Z,2.30
2018-12-10T19:57:14.517Z,2.30
2018-12-10T19:59:42.928Z,2.30
2018-12-10T20:02:11.382Z,2.30
2018-12-10T20:04:40.395Z,2.20
2018-12-10T20:07:09.196Z,2.20
2018-12-10T20:09:37.567Z,2.20
2018-12-10T20:12:06.114Z,2.20
2018-12-10T20:14:34.737Z,2.20
2018-12-10T20:17:03.260Z,2.20
2018-12-10T20:19:31.666Z,2.20
2018-12-10T20:22:00.078Z,2.20
2018-12-10T20:24:28.458Z,2.30
2018-12-10T20:26:56.836Z,2.30
2018-12-10T20:29:25.201Z,2.30
2018-12-10T20:31:53.818Z,2.30
2018-12-10T20:34:22.304Z,2.30
2018-12-10T20:36:50.785Z,2.30
2018-12-10T20:39:19.391Z,2.30
2018-12-10T20:41:47.941Z,2.30
2018-12-10T20:44:16.462Z,2.40
2018-12-10T20:46:44.918Z,2.40
2018-12-10T20:49:13.379Z,2.40
2018-12-10T20:51:41.738Z,2.40
2018-12-10T20:54:10.137Z,2.40
2018-12-10T20:56:38.512Z,2.40
2018-12-10T20:59:07.132Z,2.40
2018-12-10T21:01:35.552Z,2.40
2018-12-10T21:04:04.703Z,2.30
2018-12-10T21:06:35.800Z,2.30
2018-12-10T21:09:07.385Z,2.30
2018-12-10T21:11:35.795Z,2.30
2018-12-10T21:14:04.712Z,2.30
2018-12-10T21:16:33.098Z,2.30
2018-12-10T21:19:01.508Z,2.30
2018-12-10T21:21:29.890Z,2.30
2018-12-10T21:23:58.258Z,2.30
2018-12-10T21:26:27.198Z,2.30
2018-12-10T21:28:55.559Z,2.30
2018-12-10T21:31:23.930Z,2.30
2018-12-10T21:33:52.278Z,2.30
2018-12-10T21:36:20.794Z,2.30
2018-12-10T21:38:49.175Z,2.30
2018-12-10T21:41:17.626Z,2.30
2018-12-10T21:43:46.051Z,2.30
2018-12-10T21:46:14.556Z,2.30
2018-12-10T21:48:42.914Z,2.30
2018-12-10T21:51:12.216Z,2.30
2018-12-10T21:53:40.735Z,2.30
2018-12-10T21:56:10.840Z,2.30
2018-12-10T21:58:39.265Z,2.30
2018-12-10T22:01:07.863Z,2.30
2018-12-10T22:03:36.302Z,2.30
2018-12-10T22:06:04.812Z,2.30
2018-12-10T22:08:33.642Z,2.20
2018-12-10T22:11:02.030Z,2.30
2018-12-10T22:13:30.493Z,2.20
2018-12-10T22:16:04.604Z,2.20
2018-12-10T22:18:33.050Z,2.20
2018-12-10T22:21:01.455Z,2.20
2018-12-10T22:23:29.827Z,2.20
2018-12-10T22:25:58.172Z,2.10
2018-12-10T22:28:26.559Z,2.10
2018-12-10T22:30:55.374Z,2.10
2018-12-10T22:33:23.718Z,2.10
2018-12-10T22:35:53.066Z,2.10
2018-12-10T22:38:21.650Z,2.10
2018-12-10T22:40:50.044Z,2.10
2018-12-10T22:43:18.434Z,2.10
2018-12-10T22:45:46.774Z,2.10
2018-12-10T22:48:15.274Z,2.10
2018-12-10T22:50:43.772Z,2.10
2018-12-10T22:53:12.152Z,2.10
2018-12-10T22:55:40.546Z,2.10
2018-12-10T22:58:08.923Z,2.10
2018-12-10T23:00:42.412Z,2.20
2018-12-10T23:03:10.773Z,2.10
2018-12-10T23:05:39.236Z,2.10
2018-12-10T23:08:07.580Z,2.10
2018-12-10T23:10:35.925Z,2.10
2018-12-10T23:13:04.303Z,2.10
2018-12-10T23:15:32.674Z,2.20
2018-12-10T23:18:01.046Z,2.20
2018-12-10T23:20:29.430Z,2.20
2018-12-10T23:22:57.782Z,2.20
2018-12-10T23:25:26.145Z,2.20
2018-12-10T23:27:54.520Z,2.20
2018-12-10T23:30:22.901Z,2.20
2018-12-10T23:32:51.280Z,2.20
2018-12-10T23:35:19.636Z,2.20
2018-12-10T23:37:48.011Z,2.30
2018-12-10T23:40:16.380Z,2.30
2018-12-10T23:42:50.046Z,2.30
2018-12-10T23:45:19.604Z,2.30
2018-12-10T23:47:48.002Z,2.30
2018-12-10T23:50:16.874Z,2.30
2018-12-10T23:52:45.339Z,2.30
2018-12-10T23:55:13.686Z,2.30
2018-12-10T23:57:42.083Z,2.30
